createdAt,value
2022-11-05T00:00:30.977Z,2.10
2022-11-05T00:03:15.800Z,2.10
2022-11-05T00:06:03.455Z,2.25
2022-11-05T00:08:51.521Z,2.30
2022-11-05T00:11:18.575Z,1.90
2022-11-05T00:14:17.559Z,2.08
2022-11-05T00:16:44.047Z,2.13
2022-11-05T00:19:10.629Z,2.10
2022-11-05T00:21:58.207Z,1.85
2022-11-05T00:24:43.702Z,1.95
2022-11-05T00:27:10.936Z,2.30
2022-11-05T00:29:37.775Z,2.00
2022-11-05T00:32:04.538Z,2.20
2022-11-05T00:34:30.959Z,2.30
2022-11-05T00:36:57.536Z,2.03
2022-11-05T00:39:23.969Z,2.30
2022-11-05T00:42:10.532Z,2.20
2022-11-05T00:44:55.546Z,2.33
2022-11-05T00:47:40.590Z,1.75
2022-11-05T00:50:07.460Z,1.85
2022-11-05T00:52:54.381Z,2.00
2022-11-05T00:55:25.335Z,2.10
2022-11-05T00:57:52.051Z,2.25
2022-11-05T01:00:18.859Z,1.92
2022-11-05T01:02:45.906Z,1.80
2022-11-05T01:05:13.278Z,2.05
2022-11-05T01:07:40.198Z,2.30
2022-11-05T01:10:06.939Z,1.90
2022-11-05T01:12:33.604Z,2.10
2022-11-05T01:15:00.416Z,2.00
2022-11-05T01:17:26.854Z,2.00
2022-11-05T01:19:56.355Z,1.90
2022-11-05T01:22:25.052Z,1.90
2022-11-05T01:24:51.601Z,1.90
2022-11-05T01:27:18.151Z,1.90
2022-11-05T01:29:44.715Z,2.20
2022-11-05T01:32:11.206Z,1.80
2022-11-05T01:34:37.695Z,1.90
2022-11-05T01:37:04.392Z,1.67
2022-11-05T01:39:30.892Z,1.70
2022-11-05T01:41:58.839Z,1.75
2022-11-05T01:44:56.240Z,1.67
2022-11-05T01:47:41.590Z,1.77
2022-11-05T01:50:35.706Z,1.70
2022-11-05T01:53:25.271Z,1.90
2022-11-05T01:55:54.956Z,1.90
2022-11-05T01:58:24.271Z,1.60
2022-11-05T02:00:51.105Z,1.90
2022-11-05T02:03:18.605Z,1.90
2022-11-05T02:05:46.857Z,1.60
2022-11-05T02:08:26.080Z,1.83
2022-11-05T02:10:52.813Z,1.83
2022-11-05T02:13:19.241Z,1.95
2022-11-05T02:15:45.646Z,1.70
2022-11-05T02:18:32.568Z,1.60
2022-11-05T02:21:20.856Z,1.55
2022-11-05T02:24:24.835Z,1.73
2022-11-05T02:27:18.249Z,1.80
2022-11-05T02:29:44.626Z,1.60
2022-11-05T02:32:40.603Z,1.65
2022-11-05T02:35:30.647Z,1.52
2022-11-05T02:38:16.869Z,1.60
2022-11-05T02:40:43.407Z,1.42
2022-11-05T02:43:25.239Z,1.50
2022-11-05T02:46:10.621Z,1.65
2022-11-05T02:48:55.765Z,1.40
2022-11-05T02:51:46.456Z,1.60
2022-11-05T02:54:20.304Z,1.60
2022-11-05T02:56:54.652Z,1.52
2022-11-05T02:59:21.136Z,1.38
2022-11-05T03:01:53.087Z,1.48
2022-11-05T03:04:22.300Z,1.50
2022-11-05T03:07:17.453Z,1.50
2022-11-05T03:10:05.479Z,1.30
2022-11-05T03:12:59.283Z,1.52
2022-11-05T03:15:29.440Z,1.60
2022-11-05T03:18:06.197Z,1.50
2022-11-05T03:20:56.759Z,1.58
2022-11-05T03:23:27.178Z,1.50
2022-11-05T03:26:05.806Z,1.63
2022-11-05T03:28:36.423Z,1.48
2022-11-05T03:31:05.518Z,1.65
2022-11-05T03:33:34.390Z,1.60
2022-11-05T03:36:05.802Z,1.35
2022-11-05T03:38:36.480Z,1.50
2022-11-05T03:41:10.156Z,1.30
2022-11-05T03:43:40.812Z,1.30
2022-11-05T03:46:12.216Z,1.45
2022-11-05T03:48:44.406Z,1.20
2022-11-05T03:51:34.047Z,1.38
2022-11-05T03:54:03.422Z,1.30
2022-11-05T03:56:40.211Z,1.52
2022-11-05T03:59:09.379Z,1.40
2022-11-05T04:01:38.412Z,1.40
2022-11-05T04:04:06.325Z,1.45
2022-11-05T04:06:51.579Z,1.25
2022-11-05T04:09:36.808Z,1.23
2022-11-05T04:12:29.818Z,1.48
2022-11-05T04:14:57.292Z,1.25
2022-11-05T04:17:23.879Z,1.40
2022-11-05T04:20:08.760Z,1.48
2022-11-05T04:22:54.421Z,1.30
2022-11-05T04:25:22.042Z,1.20
2022-11-05T04:27:51.587Z,1.40
2022-11-05T04:30:19.278Z,1.40
2022-11-05T04:33:17.233Z,1.20
2022-11-05T04:35:48.859Z,1.23
2022-11-05T04:38:18.442Z,1.52
2022-11-05T04:40:46.127Z,1.23
2022-11-05T04:43:16.612Z,1.30
2022-11-05T04:45:44.179Z,1.50
2022-11-05T04:48:11.507Z,1.20
2022-11-05T04:50:38.300Z,1.17
2022-11-05T04:53:04.722Z,1.20
2022-11-05T04:55:31.283Z,1.20
2022-11-05T04:57:57.731Z,1.40
2022-11-05T05:00:27.445Z,1.70
2022-11-05T05:02:53.990Z,1.60
2022-11-05T05:05:22.537Z,1.20
2022-11-05T05:07:55.645Z,1.48
2022-11-05T05:10:22.127Z,1.73
2022-11-05T05:12:51.660Z,1.30
2022-11-05T05:15:18.301Z,1.25
2022-11-05T05:17:44.780Z,1.25
2022-11-05T05:20:29.839Z,1.10
2022-11-05T05:22:56.412Z,1.17
2022-11-05T05:25:23.160Z,1.40
2022-11-05T05:27:49.744Z,1.23
2022-11-05T05:30:19.033Z,1.45
2022-11-05T05:32:45.495Z,1.10
2022-11-05T05:35:12.118Z,1.65
2022-11-05T05:37:38.704Z,1.25
2022-11-05T05:40:05.426Z,1.40
2022-11-05T05:42:32.652Z,1.35
2022-11-05T05:45:00.274Z,1.40
2022-11-05T05:47:26.817Z,1.73
2022-11-05T05:49:53.723Z,1.30
2022-11-05T05:52:20.159Z,1.20
2022-11-05T05:54:46.635Z,1.10
2022-11-05T05:57:13.205Z,1.00
2022-11-05T05:59:39.759Z,1.20
2022-11-05T06:02:06.250Z,1.08
2022-11-05T06:04:32.725Z,0.90
2022-11-05T06:06:59.231Z,1.98
2022-11-05T06:09:25.652Z,1.02
2022-11-05T06:11:55.220Z,1.10
2022-11-05T06:14:21.941Z,1.00
2022-11-05T06:16:49.932Z,1.17
2022-11-05T06:19:17.492Z,1.27
2022-11-05T06:21:44.029Z,1.25
2022-11-05T06:24:10.720Z,1.38
2022-11-05T06:26:42.679Z,1.00
2022-11-05T06:29:10.613Z,1.30
2022-11-05T06:31:37.145Z,1.20
2022-11-05T06:34:03.781Z,1.10
2022-11-05T06:36:30.455Z,1.00
2022-11-05T06:38:56.889Z,0.90
2022-11-05T06:41:23.840Z,1.20
2022-11-05T06:43:50.654Z,1.50
2022-11-05T06:46:17.605Z,1.25
2022-11-05T06:48:44.016Z,1.17
2022-11-05T06:51:10.513Z,0.95
2022-11-05T06:53:36.992Z,1.13
2022-11-05T06:56:07.542Z,1.15
2022-11-05T06:58:34.474Z,1.10
2022-11-05T07:01:08.612Z,1.10
2022-11-05T07:03:35.960Z,1.42
2022-11-05T07:06:03.358Z,1.67
2022-11-05T07:08:34.764Z,1.70
2022-11-05T07:11:01.346Z,2.38
2022-11-05T07:13:27.862Z,3.13
2022-11-05T07:15:56.944Z,3.03
2022-11-05T07:18:23.713Z,3.05
2022-11-05T07:20:50.275Z,3.10
2022-11-05T07:23:21.182Z,2.90
2022-11-05T07:25:49.745Z,2.88
2022-11-05T07:28:17.383Z,2.65
2022-11-05T07:30:43.941Z,2.65
2022-11-05T07:33:10.816Z,2.63
2022-11-05T07:35:37.416Z,2.15
2022-11-05T07:38:03.885Z,2.38
2022-11-05T07:40:30.535Z,2.35
2022-11-05T07:42:58.935Z,2.80
2022-11-05T07:45:27.248Z,2.20
2022-11-05T07:48:01.876Z,2.50
2022-11-05T07:50:31.055Z,2.25
2022-11-05T07:53:06.181Z,1.65
2022-11-05T07:55:33.382Z,1.70
2022-11-05T07:57:59.905Z,2.22
2022-11-05T08:00:27.685Z,1.40
2022-11-05T08:03:07.112Z,1.73
2022-11-05T08:05:39.016Z,1.80
2022-11-05T08:08:08.013Z,1.60
2022-11-05T08:10:35.336Z,2.20
2022-11-05T08:13:02.062Z,3.03
2022-11-05T08:15:28.721Z,2.72
2022-11-05T08:18:06.052Z,3.40
2022-11-05T08:20:33.706Z,2.72
2022-11-05T08:23:00.232Z,2.63
2022-11-05T08:25:29.464Z,2.75
2022-11-05T08:28:01.561Z,2.75
2022-11-05T08:30:28.681Z,2.20
2022-11-05T08:33:06.139Z,2.67
2022-11-05T08:35:34.561Z,2.70
2022-11-05T08:38:03.056Z,2.80
2022-11-05T08:40:35.480Z,2.55
2022-11-05T08:43:04.502Z,2.85
2022-11-05T08:45:31.735Z,2.80
2022-11-05T08:48:14.927Z,2.30
2022-11-05T08:50:42.261Z,2.38
2022-11-05T08:53:10.327Z,2.30
2022-11-05T08:55:38.692Z,2.22
2022-11-05T08:58:09.996Z,2.28
2022-11-05T09:00:37.341Z,2.40
2022-11-05T09:03:06.917Z,2.60
2022-11-05T09:05:40.749Z,2.33
2022-11-05T09:08:08.543Z,2.00
2022-11-05T09:10:35.177Z,2.15
2022-11-05T09:13:01.980Z,2.05
2022-11-05T09:15:29.747Z,2.10
2022-11-05T09:17:56.411Z,1.98
2022-11-05T09:20:23.265Z,2.13
2022-11-05T09:22:50.506Z,2.25
2022-11-05T09:25:19.838Z,1.90
2022-11-05T09:27:46.331Z,2.00
2022-11-05T09:30:13.454Z,2.08
2022-11-05T09:32:40.324Z,2.28
2022-11-05T09:35:07.563Z,2.00
2022-11-05T09:37:34.618Z,2.33
2022-11-05T09:40:01.095Z,2.10
2022-11-05T09:42:40.191Z,2.08
2022-11-05T09:45:18.979Z,1.80
2022-11-05T09:48:12.393Z,2.13
2022-11-05T09:50:41.168Z,2.00
2022-11-05T09:53:11.183Z,2.22
2022-11-05T09:55:50.793Z,1.83
2022-11-05T09:58:28.674Z,2.17
2022-11-05T10:00:59.439Z,2.20
2022-11-05T10:03:30.181Z,2.13
2022-11-05T10:06:07.864Z,2.10
2022-11-05T10:08:46.602Z,2.13
2022-11-05T10:11:40.803Z,1.75
2022-11-05T10:14:23.479Z,2.13
2022-11-05T10:16:59.971Z,2.30
2022-11-05T10:19:38.176Z,2.05
2022-11-05T10:22:13.801Z,1.90
2022-11-05T10:24:42.821Z,2.22
2022-11-05T10:27:19.977Z,1.80
2022-11-05T10:29:52.915Z,2.08
2022-11-05T10:32:31.279Z,1.80
2022-11-05T10:35:00.849Z,2.10
2022-11-05T10:37:28.919Z,2.00
2022-11-05T10:39:55.745Z,2.40
2022-11-05T10:42:38.944Z,2.38
2022-11-05T10:45:32.282Z,2.05
2022-11-05T10:48:26.424Z,2.35
2022-11-05T10:50:53.832Z,2.45
2022-11-05T10:53:24.947Z,2.30
2022-11-05T10:55:51.952Z,2.50
2022-11-05T10:58:27.449Z,2.30
2022-11-05T11:00:57.160Z,2.10
2022-11-05T11:03:38.867Z,2.80
2022-11-05T11:06:23.224Z,2.45
2022-11-05T11:08:51.459Z,2.95
2022-11-05T11:11:42.262Z,2.13
2022-11-05T11:14:12.322Z,2.20
2022-11-05T11:16:41.951Z,2.22
2022-11-05T11:19:20.671Z,1.98
2022-11-05T11:22:10.960Z,2.42
2022-11-05T11:24:43.471Z,2.70
2022-11-05T11:27:14.727Z,2.88
2022-11-05T11:29:49.136Z,2.53
2022-11-05T11:32:18.202Z,2.67
2022-11-05T11:34:48.972Z,3.10
2022-11-05T11:37:19.992Z,2.83
2022-11-05T11:39:54.646Z,3.05
2022-11-05T11:42:33.603Z,2.80
2022-11-05T11:45:05.195Z,3.15
2022-11-05T11:47:33.076Z,3.15
2022-11-05T11:50:01.475Z,2.65
2022-11-05T11:52:33.371Z,3.03
2022-11-05T11:55:12.109Z,3.03
2022-11-05T11:57:54.213Z,3.00
2022-11-05T12:00:24.305Z,3.10
2022-11-05T12:03:05.703Z,2.60
2022-11-05T12:06:01.161Z,3.33
2022-11-05T12:08:59.345Z,2.83
2022-11-05T12:11:40.221Z,2.58
2022-11-05T12:14:26.945Z,2.63
2022-11-05T12:17:14.528Z,2.90
2022-11-05T12:19:50.339Z,2.88
2022-11-05T12:22:42.803Z,2.53
2022-11-05T12:25:22.691Z,2.38
2022-11-05T12:28:20.926Z,2.42
2022-11-05T12:30:49.557Z,2.40
2022-11-05T12:33:43.859Z,2.50
2022-11-05T12:36:35.598Z,2.08
2022-11-05T12:39:20.684Z,2.45
2022-11-05T12:42:13.574Z,2.28
2022-11-05T12:44:59.331Z,2.60
2022-11-05T12:47:54.663Z,2.55
2022-11-05T12:50:45.463Z,2.42
2022-11-05T12:53:27.210Z,2.50
2022-11-05T12:55:54.942Z,2.53
2022-11-05T12:58:30.596Z,2.72
2022-11-05T13:01:23.288Z,1.77
2022-11-05T13:03:59.115Z,2.15
2022-11-05T13:06:38.830Z,2.53
2022-11-05T13:09:20.009Z,2.92
2022-11-05T13:12:10.346Z,2.10
2022-11-05T13:14:42.308Z,2.00
2022-11-05T13:17:18.143Z,2.33
2022-11-05T13:20:11.746Z,2.33
2022-11-05T13:22:52.672Z,2.30
2022-11-05T13:25:28.737Z,2.13
2022-11-05T13:28:05.139Z,2.67
2022-11-05T13:30:41.475Z,2.75
2022-11-05T13:33:15.598Z,2.30
2022-11-05T13:36:20.623Z,2.25
2022-11-05T13:39:00.108Z,2.55
2022-11-05T13:41:41.022Z,2.78
2022-11-05T13:44:38.189Z,2.45
2022-11-05T13:47:07.744Z,2.60
2022-11-05T13:49:41.525Z,2.50
2022-11-05T13:52:41.971Z,2.20
2022-11-05T13:55:33.314Z,2.55
2022-11-05T13:58:30.386Z,2.40
2022-11-05T14:01:26.975Z,2.10
2022-11-05T14:03:56.693Z,2.50
2022-11-05T14:06:33.293Z,2.72
2022-11-05T14:09:03.474Z,2.42
2022-11-05T14:11:36.206Z,2.50
2022-11-05T14:14:09.701Z,2.60
2022-11-05T14:17:08.478Z,2.80
2022-11-05T14:20:03.176Z,2.88
2022-11-05T14:22:32.542Z,2.72
2022-11-05T14:25:19.321Z,2.60
2022-11-05T14:27:51.806Z,2.75
2022-11-05T14:30:45.073Z,3.42
2022-11-05T14:33:26.542Z,3.53
2022-11-05T14:36:13.891Z,3.35
2022-11-05T14:38:48.797Z,2.80
2022-11-05T14:41:15.627Z,3.00
2022-11-05T14:44:04.796Z,2.92
2022-11-05T14:46:46.729Z,2.78
2022-11-05T14:49:21.623Z,3.15
2022-11-05T14:51:51.033Z,2.75
2022-11-05T14:54:20.504Z,2.75
2022-11-05T14:56:57.250Z,4.20
2022-11-05T14:59:23.673Z,2.65
2022-11-05T15:01:50.305Z,2.60
2022-11-05T15:04:26.238Z,3.03
2022-11-05T15:07:02.073Z,2.45
2022-11-05T15:09:43.834Z,3.20
2022-11-05T15:12:22.043Z,3.25
2022-11-05T15:15:27.900Z,2.63
2022-11-05T15:18:27.010Z,3.10
2022-11-05T15:21:00.661Z,2.80
2022-11-05T15:23:36.219Z,2.50
2022-11-05T15:26:13.676Z,2.97
2022-11-05T15:28:47.025Z,2.60
2022-11-05T15:31:13.482Z,2.50
2022-11-05T15:33:41.353Z,2.67
2022-11-05T15:36:10.790Z,2.70
2022-11-05T15:38:37.466Z,2.78
2022-11-05T15:41:12.389Z,2.65
2022-11-05T15:43:49.899Z,2.67
2022-11-05T15:46:20.029Z,2.67
2022-11-05T15:48:52.895Z,2.55
2022-11-05T15:51:21.751Z,2.50
2022-11-05T15:54:15.608Z,2.60
2022-11-05T15:56:47.988Z,2.25
2022-11-05T15:59:20.343Z,2.58
2022-11-05T16:01:58.084Z,2.80
2022-11-05T16:04:31.089Z,2.88
2022-11-05T16:07:01.595Z,2.55
2022-11-05T16:09:31.386Z,3.05
2022-11-05T16:12:14.686Z,2.70
2022-11-05T16:14:42.346Z,2.60
2022-11-05T16:17:37.940Z,2.50
2022-11-05T16:20:21.733Z,2.60
2022-11-05T16:22:50.997Z,2.95
2022-11-05T16:25:44.204Z,2.78
2022-11-05T16:28:23.924Z,2.58
2022-11-05T16:31:00.286Z,2.70
2022-11-05T16:33:32.566Z,2.95
2022-11-05T16:35:59.199Z,2.90
2022-11-05T16:38:25.882Z,2.53
2022-11-05T16:40:52.751Z,2.90
2022-11-05T16:43:24.549Z,2.40
2022-11-05T16:45:58.746Z,2.75
2022-11-05T16:48:26.262Z,2.83
2022-11-05T16:50:56.021Z,2.70
2022-11-05T16:53:23.063Z,3.08
2022-11-05T16:55:49.760Z,2.85
2022-11-05T16:58:23.888Z,2.60
2022-11-05T17:00:53.667Z,2.60
2022-11-05T17:03:20.116Z,2.50
2022-11-05T17:05:47.008Z,2.70
2022-11-05T17:08:14.385Z,2.50
2022-11-05T17:10:41.075Z,2.55
2022-11-05T17:13:14.266Z,3.25
2022-11-05T17:15:43.766Z,3.00
2022-11-05T17:18:16.943Z,2.65
2022-11-05T17:20:53.076Z,2.80
2022-11-05T17:23:21.964Z,2.45
2022-11-05T17:25:54.584Z,3.00
2022-11-05T17:28:22.413Z,3.30
2022-11-05T17:30:55.352Z,2.50
2022-11-05T17:33:23.440Z,2.85
2022-11-05T17:35:50.951Z,3.13
2022-11-05T17:38:21.854Z,3.28
2022-11-05T17:40:51.424Z,2.90
2022-11-05T17:43:18.948Z,2.92
2022-11-05T17:45:51.988Z,3.58
2022-11-05T17:48:20.137Z,2.72
2022-11-05T17:50:49.129Z,2.78
2022-11-05T17:53:17.839Z,2.97
2022-11-05T17:55:45.701Z,3.22
2022-11-05T17:58:12.824Z,2.53
2022-11-05T18:00:40.596Z,2.70
2022-11-05T18:03:07.291Z,3.22
2022-11-05T18:05:34.585Z,2.85
2022-11-05T18:08:01.431Z,2.50
2022-11-05T18:10:28.016Z,2.53
2022-11-05T18:12:54.516Z,2.78
2022-11-05T18:15:21.104Z,2.78
2022-11-05T18:17:48.024Z,2.97
2022-11-05T18:20:19.454Z,2.70
2022-11-05T18:22:51.599Z,3.20
2022-11-05T18:25:18.604Z,2.90
2022-11-05T18:27:45.272Z,2.88
2022-11-05T18:30:14.140Z,2.85
2022-11-05T18:32:41.209Z,2.53
2022-11-05T18:35:08.180Z,2.72
2022-11-05T18:37:36.591Z,2.88
2022-11-05T18:40:03.134Z,2.70
2022-11-05T18:42:29.624Z,2.95
2022-11-05T18:44:56.122Z,2.85
2022-11-05T18:47:22.565Z,2.47
2022-11-05T18:49:49.131Z,2.55
2022-11-05T18:52:15.983Z,2.80
2022-11-05T18:54:42.689Z,2.80
2022-11-05T18:57:09.127Z,3.08
2022-11-05T18:59:38.214Z,3.10
2022-11-05T19:02:07.568Z,2.80
2022-11-05T19:04:37.420Z,3.00
2022-11-05T19:07:05.675Z,3.22
2022-11-05T19:09:34.423Z,3.13
2022-11-05T19:12:01.757Z,3.20
2022-11-05T19:14:30.148Z,2.90
2022-11-05T19:16:57.925Z,3.00
2022-11-05T19:19:24.780Z,2.85
2022-11-05T19:21:51.555Z,2.70
2022-11-05T19:24:18.323Z,3.08
2022-11-05T19:26:46.953Z,3.20
2022-11-05T19:29:13.630Z,3.15
2022-11-05T19:31:40.169Z,2.97
2022-11-05T19:34:06.685Z,3.22
2022-11-05T19:36:34.233Z,3.40
2022-11-05T19:39:06.521Z,2.95
2022-11-05T19:41:33.572Z,2.92
2022-11-05T19:44:01.811Z,2.80
2022-11-05T19:46:30.065Z,2.65
2022-11-05T19:48:57.287Z,2.95
2022-11-05T19:51:29.588Z,2.83
2022-11-05T19:53:56.715Z,2.90
2022-11-05T19:56:29.669Z,2.92
2022-11-05T19:58:56.699Z,2.90
2022-11-05T20:01:24.748Z,2.75
2022-11-05T20:03:53.247Z,3.17
2022-11-05T20:06:23.236Z,2.53
2022-11-05T20:11:37.812Z,3.45
2022-11-05T20:14:05.520Z,3.08
2022-11-05T20:16:42.828Z,2.60
2022-11-05T20:19:13.700Z,2.67
2022-11-05T20:21:40.289Z,3.28
2022-11-05T20:24:07.648Z,2.50
2022-11-05T20:26:34.306Z,2.95
2022-11-05T20:29:00.879Z,3.20
2022-11-05T20:31:41.881Z,2.55
2022-11-05T20:34:09.003Z,2.92
2022-11-05T20:36:35.467Z,2.80
2022-11-05T20:39:02.964Z,2.47
2022-11-05T20:41:30.803Z,3.08
2022-11-05T20:43:57.616Z,3.15
2022-11-05T20:46:24.714Z,3.25
2022-11-05T20:48:51.543Z,2.90
2022-11-05T20:51:20.832Z,3.25
2022-11-05T20:53:48.697Z,2.65
2022-11-05T20:56:20.727Z,2.88
2022-11-05T20:58:50.121Z,2.60
2022-11-05T21:01:20.406Z,2.95
2022-11-05T21:03:47.885Z,3.20
2022-11-05T21:06:15.201Z,3.20
2022-11-05T21:08:41.858Z,3.67
2022-11-05T21:11:08.979Z,3.35
2022-11-05T21:13:36.570Z,3.25
2022-11-05T21:16:05.961Z,3.38
2022-11-05T21:18:35.738Z,3.38
2022-11-05T21:21:07.428Z,3.38
2022-11-05T21:23:34.463Z,3.33
2022-11-05T21:26:05.910Z,3.42
2022-11-05T21:28:33.585Z,3.55
2022-11-05T21:31:02.457Z,3.75
2022-11-05T21:33:29.636Z,3.42
2022-11-05T21:35:56.441Z,3.70
2022-11-05T21:38:26.276Z,2.83
2022-11-05T21:40:52.757Z,3.33
2022-11-05T21:43:19.262Z,3.50
2022-11-05T21:45:45.847Z,3.50
2022-11-05T21:48:15.273Z,3.65
2022-11-05T21:51:01.027Z,3.08
2022-11-05T21:53:46.686Z,3.58
2022-11-05T21:56:40.686Z,3.70
2022-11-05T21:59:29.959Z,3.47
2022-11-05T22:02:01.643Z,3.03
2022-11-05T22:04:36.028Z,3.33
2022-11-05T22:07:03.349Z,3.10
2022-11-05T22:09:29.917Z,3.00
2022-11-05T22:11:57.387Z,3.03
2022-11-05T22:14:24.208Z,3.40
2022-11-05T22:16:52.784Z,3.38
2022-11-05T22:19:19.988Z,3.03
2022-11-05T22:21:49.333Z,3.30
2022-11-05T22:24:18.902Z,3.22
2022-11-05T22:26:46.336Z,3.20
2022-11-05T22:29:13.842Z,3.60
2022-11-05T22:31:40.558Z,3.55
2022-11-05T22:34:08.013Z,3.30
2022-11-05T22:36:35.437Z,3.25
2022-11-05T22:39:03.498Z,3.58
2022-11-05T22:41:30.178Z,3.90
2022-11-05T22:43:57.673Z,3.28
2022-11-05T22:46:26.662Z,3.65
2022-11-05T22:48:58.324Z,3.25
2022-11-05T22:51:27.562Z,3.05
2022-11-05T22:53:54.919Z,3.15
2022-11-05T22:56:24.066Z,3.30
2022-11-05T22:58:50.922Z,3.13
2022-11-05T23:01:18.708Z,3.38
2022-11-05T23:03:46.921Z,3.00
2022-11-05T23:06:36.444Z,3.28
2022-11-05T23:09:35.766Z,2.80
2022-11-05T23:12:05.752Z,3.17
2022-11-05T23:14:32.375Z,3.13
2022-11-05T23:17:20.861Z,3.25
2022-11-05T23:20:05.631Z,3.28
2022-11-05T23:22:51.142Z,3.70
2022-11-05T23:25:22.472Z,3.25
2022-11-05T23:27:51.344Z,3.00
2022-11-05T23:30:25.654Z,3.58
2022-11-05T23:32:52.972Z,3.50
2022-11-05T23:35:39.899Z,3.00
2022-11-05T23:38:25.273Z,3.63
2022-11-05T23:41:10.158Z,3.15
2022-11-05T23:43:55.525Z,3.38
2022-11-05T23:46:40.488Z,3.10
2022-11-05T23:49:08.260Z,2.90
2022-11-05T23:51:34.894Z,3.10
2022-11-05T23:54:01.524Z,2.83
2022-11-05T23:56:28.006Z,3.25
2022-11-05T23:58:54.577Z,3.13
